Manilla, Indiana
Current Conditions -  °F | °C
As of 2:53 PM on Friday 24 Oct 2014 (Local Time) from KGEZ Reporting Station
Broken Clouds Broken Clouds  
Wind Chill: 65°   Ceiling: 3300
Heat Index: 65°   Visibility: 10mi
Dew Point: 45°   Wind: 7mph
Humidity: 48%   Direction: 240°WSW
Pressure: 30.05"   Gusts: NA
Location:  39.57°N, 85.62°W
Report Text: KGEZ 241853Z AUTO 24006KT 10SM BKN033 18/07 A3005 RMK AO2 SLP175 T01830072
Loading
Personal Weather Stations






























Interactive Weather Map New forecast layout! Learn more

10-Day Weather Forecast

Advertisements
Track Severe Weather on mobile